sensor_id;sensor_type;location;lat;lon;timestamp;temperature;humidity
46159;DHT22;31888;44.512;26.104;2023-05-29T00:01:49;21.30;99.90
46159;DHT22;31888;44.512;26.104;2023-05-29T00:04:14;21.50;99.90
46159;DHT22;31888;44.512;26.104;2023-05-29T00:06:39;21.70;99.90
46159;DHT22;31888;44.512;26.104;2023-05-29T00:09:06;21.80;99.90
46159;DHT22;31888;44.512;26.104;2023-05-29T00:11:31;21.90;99.90
46159;DHT22;31888;44.512;26.104;2023-05-29T00:13:56;22.00;99.90
46159;DHT22;31888;44.512;26.104;2023-05-29T00:16:21;22.00;99.90
46159;DHT22;31888;44.512;26.104;2023-05-29T00:18:46;22.00;99.90
46159;DHT22;31888;44.512;26.104;2023-05-29T00:21:11;22.10;99.90
46159;DHT22;31888;44.512;26.104;2023-05-29T00:23:37;22.20;99.90
46159;DHT22;31888;44.512;26.104;2023-05-29T00:26:07;22.20;99.90
46159;DHT22;31888;44.512;26.104;2023-05-29T00:28:34;22.20;99.90
46159;DHT22;31888;44.512;26.104;2023-05-29T00:30:59;22.20;99.80
46159;DHT22;31888;44.512;26.104;2023-05-29T00:33:24;22.20;99.80
46159;DHT22;31888;44.512;26.104;2023-05-29T00:35:50;22.30;99.80
46159;DHT22;31888;44.512;26.104;2023-05-29T00:38:14;22.30;99.80
46159;DHT22;31888;44.512;26.104;2023-05-29T00:40:40;22.30;99.70
46159;DHT22;31888;44.512;26.104;2023-05-29T00:43:06;22.30;99.60
46159;DHT22;31888;44.512;26.104;2023-05-29T00:45:30;22.30;99.60
46159;DHT22;31888;44.512;26.104;2023-05-29T00:47:59;22.20;99.30
46159;DHT22;31888;44.512;26.104;2023-05-29T00:50:24;22.20;99.70
46159;DHT22;31888;44.512;26.104;2023-05-29T00:52:50;22.10;99.70
46159;DHT22;31888;44.512;26.104;2023-05-29T00:55:16;22.20;99.60
46159;DHT22;31888;44.512;26.104;2023-05-29T00:57:41;22.20;99.50
46159;DHT22;31888;44.512;26.104;2023-05-29T01:00:09;22.20;99.40
46159;DHT22;31888;44.512;26.104;2023-05-29T01:02:40;22.10;99.50
46159;DHT22;31888;44.512;26.104;2023-05-29T01:05:08;22.10;99.60
46159;DHT22;31888;44.512;26.104;2023-05-29T01:07:34;22.10;99.50
46159;DHT22;31888;44.512;26.104;2023-05-29T01:09:59;22.10;99.50
46159;DHT22;31888;44.512;26.104;2023-05-29T01:12:33;22.10;99.40
46159;DHT22;31888;44.512;26.104;2023-05-29T01:15:18;22.20;99.30
46159;DHT22;31888;44.512;26.104;2023-05-29T01:18:07;22.10;99.20
46159;DHT22;31888;44.512;26.104;2023-05-29T01:20:37;22.10;99.30
46159;DHT22;31888;44.512;26.104;2023-05-29T01:23:11;22.10;99.20
46159;DHT22;31888;44.512;26.104;2023-05-29T01:25:56;22.10;99.10
46159;DHT22;31888;44.512;26.104;2023-05-29T01:28:27;22.10;99.10
46159;DHT22;31888;44.512;26.104;2023-05-29T01:30:57;22.10;98.90
46159;DHT22;31888;44.512;26.104;2023-05-29T01:33:22;22.20;98.90
46159;DHT22;31888;44.512;26.104;2023-05-29T01:35:47;22.10;98.90
46159;DHT22;31888;44.512;26.104;2023-05-29T01:38:12;22.10;99.00
46159;DHT22;31888;44.512;26.104;2023-05-29T01:40:39;22.10;98.90
46159;DHT22;31888;44.512;26.104;2023-05-29T01:43:03;22.10;98.90
46159;DHT22;31888;44.512;26.104;2023-05-29T01:45:30;22.20;98.90
46159;DHT22;31888;44.512;26.104;2023-05-29T01:47:55;22.10;98.70
46159;DHT22;31888;44.512;26.104;2023-05-29T01:50:22;22.10;98.70
46159;DHT22;31888;44.512;26.104;2023-05-29T01:52:48;22.10;98.80
46159;DHT22;31888;44.512;26.104;2023-05-29T01:55:13;22.10;98.60
46159;DHT22;31888;44.512;26.104;2023-05-29T01:57:38;22.10;98.60
46159;DHT22;31888;44.512;26.104;2023-05-29T02:00:04;22.10;98.60
46159;DHT22;31888;44.512;26.104;2023-05-29T02:02:39;22.20;98.50
46159;DHT22;31888;44.512;26.104;2023-05-29T02:05:05;22.20;98.50
46159;DHT22;31888;44.512;26.104;2023-05-29T02:07:31;22.20;98.40
46159;DHT22;31888;44.512;26.104;2023-05-29T02:09:55;22.20;98.50
46159;DHT22;31888;44.512;26.104;2023-05-29T02:12:20;22.20;98.40
46159;DHT22;31888;44.512;26.104;2023-05-29T02:14:45;22.20;98.30
46159;DHT22;31888;44.512;26.104;2023-05-29T02:17:10;22.20;98.10
46159;DHT22;31888;44.512;26.104;2023-05-29T02:19:36;22.20;98.30
46159;DHT22;31888;44.512;26.104;2023-05-29T02:22:01;22.20;98.20
46159;DHT22;31888;44.512;26.104;2023-05-29T02:24:26;22.20;98.20
46159;DHT22;31888;44.512;26.104;2023-05-29T02:26:50;22.20;98.20
46159;DHT22;31888;44.512;26.104;2023-05-29T02:29:15;22.10;98.20
46159;DHT22;31888;44.512;26.104;2023-05-29T02:31:39;22.10;98.30
46159;DHT22;31888;44.512;26.104;2023-05-29T02:34:04;22.10;98.20
46159;DHT22;31888;44.512;26.104;2023-05-29T02:36:30;22.10;98.30
46159;DHT22;31888;44.512;26.104;2023-05-29T02:38:55;22.10;98.30
46159;DHT22;31888;44.512;26.104;2023-05-29T02:41:21;22.00;98.30
46159;DHT22;31888;44.512;26.104;2023-05-29T02:43:47;22.10;98.20
46159;DHT22;31888;44.512;26.104;2023-05-29T02:46:11;22.00;98.20
46159;DHT22;31888;44.512;26.104;2023-05-29T02:48:37;22.00;98.30
46159;DHT22;31888;44.512;26.104;2023-05-29T02:51:02;21.90;97.90
46159;DHT22;31888;44.512;26.104;2023-05-29T02:53:28;21.80;98.60
46159;DHT22;31888;44.512;26.104;2023-05-29T02:55:53;21.80;98.60
46159;DHT22;31888;44.512;26.104;2023-05-29T02:58:18;21.90;98.50
46159;DHT22;31888;44.512;26.104;2023-05-29T03:00:44;21.90;98.40
46159;DHT22;31888;44.512;26.104;2023-05-29T03:03:09;21.90;98.60
46159;DHT22;31888;44.512;26.104;2023-05-29T03:05:35;21.60;98.20
46159;DHT22;31888;44.512;26.104;2023-05-29T03:08:00;21.10;98.40
46159;DHT22;31888;44.512;26.104;2023-05-29T03:10:26;20.10;99.90
46159;DHT22;31888;44.512;26.104;2023-05-29T03:12:51;19.30;99.90
46159;DHT22;31888;44.512;26.104;2023-05-29T03:15:15;18.80;99.90
46159;DHT22;31888;44.512;26.104;2023-05-29T03:17:43;18.30;99.90
46159;DHT22;31888;44.512;26.104;2023-05-29T03:20:12;18.10;99.90
46159;DHT22;31888;44.512;26.104;2023-05-29T03:22:39;17.80;99.90
46159;DHT22;31888;44.512;26.104;2023-05-29T03:25:06;17.60;99.90
46159;DHT22;31888;44.512;26.104;2023-05-29T03:27:34;17.60;99.90
46159;DHT22;31888;44.512;26.104;2023-05-29T03:30:06;17.50;99.90
46159;DHT22;31888;44.512;26.104;2023-05-29T03:32:31;17.50;99.90
46159;DHT22;31888;44.512;26.104;2023-05-29T03:34:56;17.40;99.90
46159;DHT22;31888;44.512;26.104;2023-05-29T03:37:21;17.30;99.90
46159;DHT22;31888;44.512;26.104;2023-05-29T03:39:47;17.20;99.90
46159;DHT22;31888;44.512;26.104;2023-05-29T03:42:13;17.30;99.90
46159;DHT22;31888;44.512;26.104;2023-05-29T03:44:39;17.30;99.90
46159;DHT22;31888;44.512;26.104;2023-05-29T03:47:07;17.30;99.90
46159;DHT22;31888;44.512;26.104;2023-05-29T03:49:33;17.20;99.90
46159;DHT22;31888;44.512;26.104;2023-05-29T03:51:59;17.00;99.90
46159;DHT22;31888;44.512;26.104;2023-05-29T03:54:24;16.90;99.90
46159;DHT22;31888;44.512;26.104;2023-05-29T03:56:50;16.80;99.90
46159;DHT22;31888;44.512;26.104;2023-05-29T03:59:16;16.80;99.90
46159;DHT22;31888;44.512;26.104;2023-05-29T04:01:44;16.80;99.90
46159;DHT22;31888;44.512;26.104;2023-05-29T04:04:09;16.80;99.90
46159;DHT22;31888;44.512;26.104;2023-05-29T04:06:34;16.90;99.90
46159;DHT22;31888;44.512;26.104;2023-05-29T04:09:01;16.90;99.90
46159;DHT22;31888;44.512;26.104;2023-05-29T04:11:29;16.90;99.90
46159;DHT22;31888;44.512;26.104;2023-05-29T04:13:57;17.00;99.90
46159;DHT22;31888;44.512;26.104;2023-05-29T04:16:23;17.00;99.90
46159;DHT22;31888;44.512;26.104;2023-05-29T04:18:51;17.00;99.90
46159;DHT22;31888;44.512;26.104;2023-05-29T04:21:21;17.10;99.90
46159;DHT22;31888;44.512;26.104;2023-05-29T04:23:49;17.20;99.90
46159;DHT22;31888;44.512;26.104;2023-05-29T04:26:14;17.10;99.90
46159;DHT22;31888;44.512;26.104;2023-05-29T04:28:39;17.20;99.90
46159;DHT22;31888;44.512;26.104;2023-05-29T04:31:05;17.20;99.90
46159;DHT22;31888;44.512;26.104;2023-05-29T04:33:32;17.30;99.90
46159;DHT22;31888;44.512;26.104;2023-05-29T04:36:02;17.30;99.90
46159;DHT22;31888;44.512;26.104;2023-05-29T04:38:28;17.30;99.90
46159;DHT22;31888;44.512;26.104;2023-05-29T04:40:53;17.20;99.90
46159;DHT22;31888;44.512;26.104;2023-05-29T04:43:21;17.30;99.90
46159;DHT22;31888;44.512;26.104;2023-05-29T04:45:57;17.30;99.90
46159;DHT22;31888;44.512;26.104;2023-05-29T04:48:24;17.30;99.90
46159;DHT22;31888;44.512;26.104;2023-05-29T04:50:50;17.30;99.90
46159;DHT22;31888;44.512;26.104;2023-05-29T04:53:16;17.50;99.90
46159;DHT22;31888;44.512;26.104;2023-05-29T04:55:41;17.50;99.90
46159;DHT22;31888;44.512;26.104;2023-05-29T04:58:06;17.60;99.90
46159;DHT22;31888;44.512;26.104;2023-05-29T05:00:31;17.60;99.90
46159;DHT22;31888;44.512;26.104;2023-05-29T05:02:56;17.70;99.90
46159;DHT22;31888;44.512;26.104;2023-05-29T05:05:21;17.70;99.90
46159;DHT22;31888;44.512;26.104;2023-05-29T05:07:52;17.90;99.90
46159;DHT22;31888;44.512;26.104;2023-05-29T05:10:18;18.30;99.90
46159;DHT22;31888;44.512;26.104;2023-05-29T05:12:43;18.70;99.90
46159;DHT22;31888;44.512;26.104;2023-05-29T05:15:12;19.00;99.90
46159;DHT22;31888;44.512;26.104;2023-05-29T05:17:37;19.30;99.90
46159;DHT22;31888;44.512;26.104;2023-05-29T05:20:01;19.50;99.90
46159;DHT22;31888;44.512;26.104;2023-05-29T05:22:29;19.70;99.90
46159;DHT22;31888;44.512;26.104;2023-05-29T05:24:54;19.90;99.90
46159;DHT22;31888;44.512;26.104;2023-05-29T05:27:21;20.10;99.90
46159;DHT22;31888;44.512;26.104;2023-05-29T05:29:46;20.20;99.90
46159;DHT22;31888;44.512;26.104;2023-05-29T05:32:10;20.00;99.90
46159;DHT22;31888;44.512;26.104;2023-05-29T05:34:35;19.70;99.90
46159;DHT22;31888;44.512;26.104;2023-05-29T05:37:00;19.40;99.90
46159;DHT22;31888;44.512;26.104;2023-05-29T05:39:26;19.30;99.90
46159;DHT22;31888;44.512;26.104;2023-05-29T05:41:50;19.10;99.90
46159;DHT22;31888;44.512;26.104;2023-05-29T05:44:36;18.90;99.90
46159;DHT22;31888;44.512;26.104;2023-05-29T05:47:05;18.90;99.90
46159;DHT22;31888;44.512;26.104;2023-05-29T05:49:31;18.90;99.90
46159;DHT22;31888;44.512;26.104;2023-05-29T05:51:56;19.00;99.90
46159;DHT22;31888;44.512;26.104;2023-05-29T05:54:21;19.00;99.90
46159;DHT22;31888;44.512;26.104;2023-05-29T05:56:46;19.20;99.90
46159;DHT22;31888;44.512;26.104;2023-05-29T05:59:14;19.30;99.90
46159;DHT22;31888;44.512;26.104;2023-05-29T06:01:39;19.40;99.90
46159;DHT22;31888;44.512;26.104;2023-05-29T06:04:04;19.50;99.90
46159;DHT22;31888;44.512;26.104;2023-05-29T06:06:29;19.80;99.90
46159;DHT22;31888;44.512;26.104;2023-05-29T06:08:55;19.90;99.90
46159;DHT22;31888;44.512;26.104;2023-05-29T06:11:21;20.00;99.90
46159;DHT22;31888;44.512;26.104;2023-05-29T06:13:46;20.20;99.90
46159;DHT22;31888;44.512;26.104;2023-05-29T06:16:17;20.30;99.90
46159;DHT22;31888;44.512;26.104;2023-05-29T06:18:43;20.50;99.90
46159;DHT22;31888;44.512;26.104;2023-05-29T06:21:08;20.50;99.90
46159;DHT22;31888;44.512;26.104;2023-05-29T06:23:44;20.50;99.90
46159;DHT22;31888;44.512;26.104;2023-05-29T06:26:17;20.70;99.90
46159;DHT22;31888;44.512;26.104;2023-05-29T06:28:43;21.00;99.20
46159;DHT22;31888;44.512;26.104;2023-05-29T06:31:09;21.10;99.00
46159;DHT22;31888;44.512;26.104;2023-05-29T06:33:34;21.40;98.90
46159;DHT22;31888;44.512;26.104;2023-05-29T06:35:59;21.60;97.30
46159;DHT22;31888;44.512;26.104;2023-05-29T06:38:26;21.70;97.10
46159;DHT22;31888;44.512;26.104;2023-05-29T06:40:50;21.80;96.10
46159;DHT22;31888;44.512;26.104;2023-05-29T06:43:15;22.00;96.00
46159;DHT22;31888;44.512;26.104;2023-05-29T06:45:44;22.10;95.70
46159;DHT22;31888;44.512;26.104;2023-05-29T06:48:09;22.20;95.10
46159;DHT22;31888;44.512;26.104;2023-05-29T06:50:35;22.20;94.30
46159;DHT22;31888;44.512;26.104;2023-05-29T06:53:20;22.10;94.80
46159;DHT22;31888;44.512;26.104;2023-05-29T06:55:46;22.30;95.00
46159;DHT22;31888;44.512;26.104;2023-05-29T06:58:11;22.30;94.80
46159;DHT22;31888;44.512;26.104;2023-05-29T07:00:35;22.40;95.00
46159;DHT22;31888;44.512;26.104;2023-05-29T07:03:40;22.60;95.00
46159;DHT22;31888;44.512;26.104;2023-05-29T07:06:06;22.80;94.80
46159;DHT22;31888;44.512;26.104;2023-05-29T07:08:32;23.10;94.80
46159;DHT22;31888;44.512;26.104;2023-05-29T07:10:57;23.10;94.10
46159;DHT22;31888;44.512;26.104;2023-05-29T07:13:25;23.30;94.50
46159;DHT22;31888;44.512;26.104;2023-05-29T07:15:51;23.50;94.10
46159;DHT22;31888;44.512;26.104;2023-05-29T07:18:21;23.50;93.70
46159;DHT22;31888;44.512;26.104;2023-05-29T07:20:46;23.50;93.20
46159;DHT22;31888;44.512;26.104;2023-05-29T07:23:14;23.60;93.30
46159;DHT22;31888;44.512;26.104;2023-05-29T07:25:40;23.50;92.90
46159;DHT22;31888;44.512;26.104;2023-05-29T07:28:05;23.30;93.50
46159;DHT22;31888;44.512;26.104;2023-05-29T07:30:45;23.20;93.50
46159;DHT22;31888;44.512;26.104;2023-05-29T07:33:09;23.30;92.90
46159;DHT22;31888;44.512;26.104;2023-05-29T07:35:39;23.30;93.50
46159;DHT22;31888;44.512;26.104;2023-05-29T07:38:05;23.60;93.10
46159;DHT22;31888;44.512;26.104;2023-05-29T07:40:31;23.50;92.70
46159;DHT22;31888;44.512;26.104;2023-05-29T07:43:15;23.70;92.90
46159;DHT22;31888;44.512;26.104;2023-05-29T07:45:48;23.70;92.00
46159;DHT22;31888;44.512;26.104;2023-05-29T07:48:14;23.50;92.20
46159;DHT22;31888;44.512;26.104;2023-05-29T07:50:39;23.50;92.30
46159;DHT22;31888;44.512;26.104;2023-05-29T07:53:03;23.50;92.20
46159;DHT22;31888;44.512;26.104;2023-05-29T07:55:31;23.60;92.00
46159;DHT22;31888;44.512;26.104;2023-05-29T07:57:57;23.60;92.10
46159;DHT22;31888;44.512;26.104;2023-05-29T08:00:24;23.70;91.90
46159;DHT22;31888;44.512;26.104;2023-05-29T08:02:49;23.50;92.30
46159;DHT22;31888;44.512;26.104;2023-05-29T08:05:26;23.20;92.60
46159;DHT22;31888;44.512;26.104;2023-05-29T08:07:51;23.00;92.90
46159;DHT22;31888;44.512;26.104;2023-05-29T08:10:16;23.10;92.30
46159;DHT22;31888;44.512;26.104;2023-05-29T08:12:41;23.30;92.50
46159;DHT22;31888;44.512;26.104;2023-05-29T08:15:08;23.40;92.20
46159;DHT22;31888;44.512;26.104;2023-05-29T08:17:35;23.40;92.10
46159;DHT22;31888;44.512;26.104;2023-05-29T08:20:00;23.30;92.30
46159;DHT22;31888;44.512;26.104;2023-05-29T08:22:29;23.20;92.60
46159;DHT22;31888;44.512;26.104;2023-05-29T08:24:53;23.30;92.80
46159;DHT22;31888;44.512;26.104;2023-05-29T08:27:18;23.40;92.10
46159;DHT22;31888;44.512;26.104;2023-05-29T08:29:42;23.20;92.50
46159;DHT22;31888;44.512;26.104;2023-05-29T08:32:07;23.20;92.80
46159;DHT22;31888;44.512;26.104;2023-05-29T08:34:34;23.30;93.10
46159;DHT22;31888;44.512;26.104;2023-05-29T08:36:59;23.60;92.60
46159;DHT22;31888;44.512;26.104;2023-05-29T08:39:23;23.90;92.20
46159;DHT22;31888;44.512;26.104;2023-05-29T08:42:01;23.90;92.50
46159;DHT22;31888;44.512;26.104;2023-05-29T08:44:31;24.20;92.20
46159;DHT22;31888;44.512;26.104;2023-05-29T08:46:56;23.90;91.40
46159;DHT22;31888;44.512;26.104;2023-05-29T08:49:22;23.60;92.20
46159;DHT22;31888;44.512;26.104;2023-05-29T08:51:54;23.80;92.30
46159;DHT22;31888;44.512;26.104;2023-05-29T08:54:22;23.70;91.90
46159;DHT22;31888;44.512;26.104;2023-05-29T08:56:47;23.90;92.20
46159;DHT22;31888;44.512;26.104;2023-05-29T08:59:12;24.20;91.80
46159;DHT22;31888;44.512;26.104;2023-05-29T09:01:38;24.40;91.60
46159;DHT22;31888;44.512;26.104;2023-05-29T09:04:03;24.30;91.90
46159;DHT22;31888;44.512;26.104;2023-05-29T09:06:29;24.00;91.40
46159;DHT22;31888;44.512;26.104;2023-05-29T09:08:56;24.00;91.60
46159;DHT22;31888;44.512;26.104;2023-05-29T09:11:22;24.30;91.50
46159;DHT22;31888;44.512;26.104;2023-05-29T09:13:47;24.80;91.10
46159;DHT22;31888;44.512;26.104;2023-05-29T09:16:12;24.70;91.10
46159;DHT22;31888;44.512;26.104;2023-05-29T09:18:37;24.80;91.10
46159;DHT22;31888;44.512;26.104;2023-05-29T09:21:06;24.50;91.40
46159;DHT22;31888;44.512;26.104;2023-05-29T09:23:32;24.50;91.40
46159;DHT22;31888;44.512;26.104;2023-05-29T09:26:02;24.40;90.50
46159;DHT22;31888;44.512;26.104;2023-05-29T09:28:30;24.20;91.50
46159;DHT22;31888;44.512;26.104;2023-05-29T09:30:56;24.20;90.70
46159;DHT22;31888;44.512;26.104;2023-05-29T09:33:25;24.00;90.90
46159;DHT22;31888;44.512;26.104;2023-05-29T09:35:50;24.10;91.20
46159;DHT22;31888;44.512;26.104;2023-05-29T09:38:17;24.30;89.40
46159;DHT22;31888;44.512;26.104;2023-05-29T09:41:05;24.40;88.20
46159;DHT22;31888;44.512;26.104;2023-05-29T09:43:30;24.60;87.40
46159;DHT22;31888;44.512;26.104;2023-05-29T09:45:57;24.70;86.50
46159;DHT22;31888;44.512;26.104;2023-05-29T09:48:23;24.60;87.10
46159;DHT22;31888;44.512;26.104;2023-05-29T09:50:49;24.60;87.90
46159;DHT22;31888;44.512;26.104;2023-05-29T09:53:18;24.40;88.10
46159;DHT22;31888;44.512;26.104;2023-05-29T09:55:43;24.30;88.10
46159;DHT22;31888;44.512;26.104;2023-05-29T09:58:11;24.20;89.00
46159;DHT22;31888;44.512;26.104;2023-05-29T10:00:37;24.10;89.70
46159;DHT22;31888;44.512;26.104;2023-05-29T10:03:02;24.20;90.10
46159;DHT22;31888;44.512;26.104;2023-05-29T10:05:27;24.30;90.00
46159;DHT22;31888;44.512;26.104;2023-05-29T10:07:54;24.30;89.60
46159;DHT22;31888;44.512;26.104;2023-05-29T10:10:19;24.60;90.00
46159;DHT22;31888;44.512;26.104;2023-05-29T10:12:45;24.80;88.50
46159;DHT22;31888;44.512;26.104;2023-05-29T10:15:15;24.70;88.10
46159;DHT22;31888;44.512;26.104;2023-05-29T10:17:48;24.70;89.80
46159;DHT22;31888;44.512;26.104;2023-05-29T10:20:14;24.60;89.00
46159;DHT22;31888;44.512;26.104;2023-05-29T10:22:44;24.50;89.00
46159;DHT22;31888;44.512;26.104;2023-05-29T10:25:09;24.50;89.10
46159;DHT22;31888;44.512;26.104;2023-05-29T10:27:35;24.30;90.00
46159;DHT22;31888;44.512;26.104;2023-05-29T10:30:06;24.30;90.10
46159;DHT22;31888;44.512;26.104;2023-05-29T10:32:45;24.30;89.80
46159;DHT22;31888;44.512;26.104;2023-05-29T10:35:25;24.20;90.20
46159;DHT22;31888;44.512;26.104;2023-05-29T10:37:56;24.00;90.00
46159;DHT22;31888;44.512;26.104;2023-05-29T10:40:23;24.30;90.20
46159;DHT22;31888;44.512;26.104;2023-05-29T10:42:50;24.70;90.00
46159;DHT22;31888;44.512;26.104;2023-05-29T10:45:47;24.90;89.40
46159;DHT22;31888;44.512;26.104;2023-05-29T10:48:39;24.50;88.30
46159;DHT22;31888;44.512;26.104;2023-05-29T10:51:07;24.70;88.00
46159;DHT22;31888;44.512;26.104;2023-05-29T10:53:32;24.80;88.20
46159;DHT22;31888;44.512;26.104;2023-05-29T10:55:59;24.90;88.80
46159;DHT22;31888;44.512;26.104;2023-05-29T10:58:25;24.80;88.40
46159;DHT22;31888;44.512;26.104;2023-05-29T11:00:51;24.60;88.10
46159;DHT22;31888;44.512;26.104;2023-05-29T11:03:20;24.50;88.60
46159;DHT22;31888;44.512;26.104;2023-05-29T11:05:57;24.60;88.50
46159;DHT22;31888;44.512;26.104;2023-05-29T11:08:29;24.80;88.20
46159;DHT22;31888;44.512;26.104;2023-05-29T11:10:58;24.80;87.80
46159;DHT22;31888;44.512;26.104;2023-05-29T11:13:24;24.60;88.50
46159;DHT22;31888;44.512;26.104;2023-05-29T11:16:04;25.00;88.70
46159;DHT22;31888;44.512;26.104;2023-05-29T11:18:29;24.80;87.20
46159;DHT22;31888;44.512;26.104;2023-05-29T11:21:00;24.40;87.80
46159;DHT22;31888;44.512;26.104;2023-05-29T11:23:31;24.50;88.10
46159;DHT22;31888;44.512;26.104;2023-05-29T11:25:56;24.70;88.00
46159;DHT22;31888;44.512;26.104;2023-05-29T11:28:21;24.80;87.40
46159;DHT22;31888;44.512;26.104;2023-05-29T11:30:47;24.80;87.60
46159;DHT22;31888;44.512;26.104;2023-05-29T11:33:20;25.10;88.00
46159;DHT22;31888;44.512;26.104;2023-05-29T11:35:53;25.40;87.60
46159;DHT22;31888;44.512;26.104;2023-05-29T11:38:22;25.30;87.50
46159;DHT22;31888;44.512;26.104;2023-05-29T11:40:47;24.90;86.70
46159;DHT22;31888;44.512;26.104;2023-05-29T11:43:12;24.90;85.80
46159;DHT22;31888;44.512;26.104;2023-05-29T11:45:39;24.70;87.40
46159;DHT22;31888;44.512;26.104;2023-05-29T11:48:05;24.90;87.50
46159;DHT22;31888;44.512;26.104;2023-05-29T11:50:30;25.00;87.50
46159;DHT22;31888;44.512;26.104;2023-05-29T11:52:58;24.90;85.70
46159;DHT22;31888;44.512;26.104;2023-05-29T11:55:25;24.70;86.10
46159;DHT22;31888;44.512;26.104;2023-05-29T11:57:51;24.60;86.50
46159;DHT22;31888;44.512;26.104;2023-05-29T12:00:18;24.60;87.00
46159;DHT22;31888;44.512;26.104;2023-05-29T12:02:43;24.70;86.00
46159;DHT22;31888;44.512;26.104;2023-05-29T12:05:10;24.80;85.90
46159;DHT22;31888;44.512;26.104;2023-05-29T12:07:37;24.90;85.30
46159;DHT22;31888;44.512;26.104;2023-05-29T12:10:09;24.90;85.10
46159;DHT22;31888;44.512;26.104;2023-05-29T12:12:36;24.90;85.70
46159;DHT22;31888;44.512;26.104;2023-05-29T12:15:02;25.20;85.40
46159;DHT22;31888;44.512;26.104;2023-05-29T12:17:30;25.00;83.50
46159;DHT22;31888;44.512;26.104;2023-05-29T12:19:54;24.90;84.70
46159;DHT22;31888;44.512;26.104;2023-05-29T12:22:32;25.00;84.60
46159;DHT22;31888;44.512;26.104;2023-05-29T12:24:56;24.80;84.50
46159;DHT22;31888;44.512;26.104;2023-05-29T12:27:28;24.90;85.20
46159;DHT22;31888;44.512;26.104;2023-05-29T12:30:01;25.20;84.70
46159;DHT22;31888;44.512;26.104;2023-05-29T12:32:35;25.50;84.70
46159;DHT22;31888;44.512;26.104;2023-05-29T12:34:59;25.70;84.30
46159;DHT22;31888;44.512;26.104;2023-05-29T12:37:30;25.50;84.40
46159;DHT22;31888;44.512;26.104;2023-05-29T12:40:10;25.40;85.20
46159;DHT22;31888;44.512;26.104;2023-05-29T12:42:35;25.30;85.50
46159;DHT22;31888;44.512;26.104;2023-05-29T12:45:04;25.10;84.70
46159;DHT22;31888;44.512;26.104;2023-05-29T12:47:31;24.60;86.00
46159;DHT22;31888;44.512;26.104;2023-05-29T12:49:57;24.70;86.10
46159;DHT22;31888;44.512;26.104;2023-05-29T12:52:23;25.00;86.10
46159;DHT22;31888;44.512;26.104;2023-05-29T12:54:48;25.10;84.60
46159;DHT22;31888;44.512;26.104;2023-05-29T12:57:13;24.90;84.90
46159;DHT22;31888;44.512;26.104;2023-05-29T12:59:38;25.00;85.80
46159;DHT22;31888;44.512;26.104;2023-05-29T13:02:06;25.30;85.50
46159;DHT22;31888;44.512;26.104;2023-05-29T13:04:31;25.40;84.60
46159;DHT22;31888;44.512;26.104;2023-05-29T13:06:56;25.40;84.60
46159;DHT22;31888;44.512;26.104;2023-05-29T13:09:21;25.40;85.10
46159;DHT22;31888;44.512;26.104;2023-05-29T13:11:46;25.50;83.80
46159;DHT22;31888;44.512;26.104;2023-05-29T13:14:11;25.50;84.50
46159;DHT22;31888;44.512;26.104;2023-05-29T13:16:36;25.50;83.50
46159;DHT22;31888;44.512;26.104;2023-05-29T13:19:02;25.50;84.20
46159;DHT22;31888;44.512;26.104;2023-05-29T13:21:27;25.50;82.40
46159;DHT22;31888;44.512;26.104;2023-05-29T13:23:51;25.10;82.90
46159;DHT22;31888;44.512;26.104;2023-05-29T13:26:17;25.00;83.60
46159;DHT22;31888;44.512;26.104;2023-05-29T13:28:41;25.00;84.00
46159;DHT22;31888;44.512;26.104;2023-05-29T13:31:06;25.00;83.90
46159;DHT22;31888;44.512;26.104;2023-05-29T13:33:30;25.00;83.70
46159;DHT22;31888;44.512;26.104;2023-05-29T13:35:57;25.00;84.50
46159;DHT22;31888;44.512;26.104;2023-05-29T13:38:21;24.90;84.50
46159;DHT22;31888;44.512;26.104;2023-05-29T13:40:46;24.90;84.00
46159;DHT22;31888;44.512;26.104;2023-05-29T13:43:10;24.80;83.10
46159;DHT22;31888;44.512;26.104;2023-05-29T13:45:35;24.60;84.40
46159;DHT22;31888;44.512;26.104;2023-05-29T13:48:02;24.50;84.60
46159;DHT22;31888;44.512;26.104;2023-05-29T13:50:27;24.60;84.20
46159;DHT22;31888;44.512;26.104;2023-05-29T13:52:53;24.60;84.00
46159;DHT22;31888;44.512;26.104;2023-05-29T13:55:17;24.60;84.10
46159;DHT22;31888;44.512;26.104;2023-05-29T13:57:42;24.60;84.60
46159;DHT22;31888;44.512;26.104;2023-05-29T14:00:08;24.70;84.60
46159;DHT22;31888;44.512;26.104;2023-05-29T14:02:34;24.70;83.40
46159;DHT22;31888;44.512;26.104;2023-05-29T14:04:59;24.90;83.40
46159;DHT22;31888;44.512;26.104;2023-05-29T14:07:25;24.80;82.70
46159;DHT22;31888;44.512;26.104;2023-05-29T14:09:52;24.70;82.20
46159;DHT22;31888;44.512;26.104;2023-05-29T14:12:17;24.70;80.90
46159;DHT22;31888;44.512;26.104;2023-05-29T14:14:44;24.80;80.80
46159;DHT22;31888;44.512;26.104;2023-05-29T14:17:09;24.90;81.80
46159;DHT22;31888;44.512;26.104;2023-05-29T14:19:35;25.00;80.40
46159;DHT22;31888;44.512;26.104;2023-05-29T14:22:00;24.80;80.70
46159;DHT22;31888;44.512;26.104;2023-05-29T14:24:24;24.90;81.30
46159;DHT22;31888;44.512;26.104;2023-05-29T14:26:50;24.80;80.80
46159;DHT22;31888;44.512;26.104;2023-05-29T14:29:15;24.80;81.10
46159;DHT22;31888;44.512;26.104;2023-05-29T14:31:40;24.70;81.70
46159;DHT22;31888;44.512;26.104;2023-05-29T14:34:04;24.70;82.30
46159;DHT22;31888;44.512;26.104;2023-05-29T14:36:30;24.70;82.80
46159;DHT22;31888;44.512;26.104;2023-05-29T14:38:54;24.80;82.40
46159;DHT22;31888;44.512;26.104;2023-05-29T14:41:19;24.90;82.00
46159;DHT22;31888;44.512;26.104;2023-05-29T14:43:45;24.90;82.10
46159;DHT22;31888;44.512;26.104;2023-05-29T14:46:10;24.90;82.00
46159;DHT22;31888;44.512;26.104;2023-05-29T14:48:35;24.90;82.10
46159;DHT22;31888;44.512;26.104;2023-05-29T14:51:00;24.90;81.60
46159;DHT22;31888;44.512;26.104;2023-05-29T14:53:24;24.80;82.00
46159;DHT22;31888;44.512;26.104;2023-05-29T14:55:49;24.80;82.50
46159;DHT22;31888;44.512;26.104;2023-05-29T14:58:14;24.70;81.40
46159;DHT22;31888;44.512;26.104;2023-05-29T15:00:40;24.80;81.70
46159;DHT22;31888;44.512;26.104;2023-05-29T15:03:04;24.90;81.10
46159;DHT22;31888;44.512;26.104;2023-05-29T15:05:29;25.00;80.90
46159;DHT22;31888;44.512;26.104;2023-05-29T15:07:54;25.00;80.60
46159;DHT22;31888;44.512;26.104;2023-05-29T15:10:20;25.00;80.70
46159;DHT22;31888;44.512;26.104;2023-05-29T15:12:44;25.10;81.20
46159;DHT22;31888;44.512;26.104;2023-05-29T15:15:10;25.10;81.10